createdAt,value
2022-12-19T00:00:05.533Z,0.60
2022-12-19T00:02:39.547Z,0.60
2022-12-19T00:05:07.439Z,0.60
2022-12-19T00:07:34.624Z,0.70
2022-12-19T00:10:01.886Z,0.70
2022-12-19T00:12:29.077Z,0.70
2022-12-19T00:14:56.163Z,0.80
2022-12-19T00:17:25.846Z,0.80
2022-12-19T00:19:52.987Z,0.80
2022-12-19T00:22:20.209Z,0.80
2022-12-19T00:24:48.493Z,0.80
2022-12-19T00:27:15.586Z,0.80
2022-12-19T00:29:42.777Z,0.80
2022-12-19T00:32:09.894Z,0.80
2022-12-19T00:34:40.375Z,0.90
2022-12-19T00:37:07.537Z,0.90
2022-12-19T00:39:35.268Z,0.90
2022-12-19T00:42:02.365Z,0.90
2022-12-19T00:44:29.479Z,0.90
2022-12-19T00:46:57.653Z,0.90
2022-12-19T00:49:24.828Z,0.90
2022-12-19T00:51:51.926Z,0.90
2022-12-19T00:54:19.090Z,1.00
2022-12-19T00:56:46.792Z,1.00
2022-12-19T00:59:13.934Z,1.00
2022-12-19T01:01:42.198Z,1.00
2022-12-19T01:04:30.702Z,1.00
2022-12-19T01:07:02.472Z,1.00
2022-12-19T01:09:35.845Z,1.00
2022-12-19T01:12:24.715Z,1.10
2022-12-19T01:15:02.831Z,1.10
2022-12-19T01:17:37.026Z,1.10
2022-12-19T01:20:21.408Z,1.10
2022-12-19T01:22:59.801Z,1.10
2022-12-19T01:25:27.985Z,1.10
2022-12-19T01:27:56.246Z,1.20
2022-12-19T01:30:24.180Z,1.20
2022-12-19T01:32:51.776Z,1.20
2022-12-19T01:35:21.527Z,1.20
2022-12-19T01:37:57.504Z,1.20
2022-12-19T01:40:36.063Z,1.20
2022-12-19T01:43:05.379Z,1.30
2022-12-19T01:45:37.457Z,1.30
2022-12-19T01:48:16.862Z,1.30
2022-12-19T01:51:04.343Z,1.30
2022-12-19T01:53:59.521Z,1.40
2022-12-19T01:56:34.913Z,1.40
2022-12-19T01:59:10.553Z,1.40
2022-12-19T02:01:51.210Z,1.40
2022-12-19T02:04:25.175Z,1.40
2022-12-19T02:06:57.850Z,1.40
2022-12-19T02:09:25.391Z,1.40
2022-12-19T02:11:53.730Z,1.40
2022-12-19T02:14:21.760Z,1.50
2022-12-19T02:16:59.905Z,1.40
2022-12-19T02:19:48.784Z,1.40
2022-12-19T02:22:38.696Z,1.40
2022-12-19T02:25:56.896Z,1.40
2022-12-19T02:29:41.449Z,1.40
2022-12-19T02:32:20.025Z,1.40
2022-12-19T02:34:58.575Z,1.40
2022-12-19T02:37:34.544Z,1.30
2022-12-19T02:40:17.155Z,1.40
2022-12-19T02:42:50.756Z,1.40
2022-12-19T02:45:28.368Z,1.40
2022-12-19T02:48:07.355Z,1.40
2022-12-19T02:50:40.714Z,1.40
2022-12-19T02:53:11.746Z,1.40
2022-12-19T02:55:57.527Z,1.40
2022-12-19T02:59:29.144Z,1.40
2022-12-19T03:02:04.519Z,1.40
2022-12-19T03:05:20.642Z,1.50
2022-12-19T03:07:56.560Z,1.50
2022-12-19T03:10:35.737Z,1.50
2022-12-19T03:13:29.043Z,1.60
2022-12-19T03:15:58.714Z,1.60
2022-12-19T03:18:27.326Z,1.60
2022-12-19T03:21:11.821Z,1.60
2022-12-19T03:23:40.254Z,1.70
2022-12-19T03:26:17.926Z,1.70
2022-12-19T03:29:09.403Z,1.70
2022-12-19T03:31:38.764Z,1.80
2022-12-19T03:34:28.321Z,1.80
2022-12-19T03:37:04.296Z,1.90
2022-12-19T03:39:34.663Z,1.90
2022-12-19T03:42:22.196Z,2.00
2022-12-19T03:44:51.192Z,2.00
2022-12-19T03:47:27.547Z,2.00
2022-12-19T03:49:54.894Z,2.00
2022-12-19T03:52:34.404Z,2.00
2022-12-19T03:55:39.282Z,2.00
2022-12-19T03:58:14.375Z,2.10
2022-12-19T04:00:47.358Z,2.10
2022-12-19T04:03:17.865Z,2.10
2022-12-19T04:05:48.652Z,2.20
2022-12-19T04:08:16.799Z,2.20
2022-12-19T04:11:15.710Z,2.20
2022-12-19T04:14:00.373Z,2.20
2022-12-19T04:16:51.288Z,2.30
2022-12-19T04:19:25.758Z,2.30
2022-12-19T04:22:02.046Z,2.30
2022-12-19T04:24:34.733Z,2.30
2022-12-19T04:27:05.506Z,2.30
2022-12-19T04:29:35.729Z,2.30
2022-12-19T04:32:04.514Z,2.30
2022-12-19T04:34:36.798Z,2.30
2022-12-19T04:37:06.266Z,2.30
2022-12-19T04:39:33.634Z,2.30
2022-12-19T04:42:00.632Z,2.40
2022-12-19T04:44:27.833Z,2.40
2022-12-19T04:46:54.942Z,2.40
2022-12-19T04:49:22.143Z,2.40
2022-12-19T04:51:49.530Z,2.50
2022-12-19T04:54:16.764Z,2.50
2022-12-19T04:56:43.829Z,2.50
2022-12-19T04:59:11.206Z,2.60
2022-12-19T05:01:38.568Z,2.60
2022-12-19T05:04:05.767Z,2.60
2022-12-19T05:06:33.079Z,2.60
2022-12-19T05:09:00.116Z,2.60
2022-12-19T05:11:27.152Z,2.70
2022-12-19T05:13:54.292Z,2.70
2022-12-19T05:16:21.510Z,2.70
2022-12-19T05:18:48.661Z,2.70
2022-12-19T05:21:16.078Z,2.70
2022-12-19T05:23:43.207Z,2.80
2022-12-19T05:26:11.652Z,2.80
2022-12-19T05:28:39.257Z,2.80
2022-12-19T05:31:14.514Z,2.90
2022-12-19T05:33:43.329Z,2.90
2022-12-19T05:36:12.025Z,2.90
2022-12-19T05:38:39.705Z,2.90
2022-12-19T05:41:16.317Z,3.00
2022-12-19T05:43:45.344Z,3.00
2022-12-19T05:46:12.899Z,3.00
2022-12-19T05:48:40.194Z,3.10
2022-12-19T05:51:07.872Z,3.10
2022-12-19T05:53:39.982Z,3.10
2022-12-19T05:56:13.476Z,3.20
2022-12-19T05:58:42.775Z,3.20
2022-12-19T06:01:25.945Z,3.30
2022-12-19T06:03:54.476Z,3.30
2022-12-19T06:06:24.733Z,3.40
2022-12-19T06:08:56.828Z,3.40
2022-12-19T06:11:24.772Z,3.40
2022-12-19T06:13:52.316Z,3.50
2022-12-19T06:16:22.172Z,3.50
2022-12-19T06:18:49.503Z,3.50
2022-12-19T06:21:21.952Z,3.60
2022-12-19T06:23:49.570Z,3.60
2022-12-19T06:26:20.132Z,3.60
2022-12-19T06:28:49.063Z,3.70
2022-12-19T06:31:17.697Z,3.80
2022-12-19T06:33:45.097Z,3.80
2022-12-19T06:36:28.110Z,3.80
2022-12-19T06:39:00.154Z,3.80
2022-12-19T06:41:46.383Z,3.80
2022-12-19T06:44:15.605Z,3.80
2022-12-19T06:46:43.680Z,3.80
2022-12-19T06:49:11.698Z,3.80
2022-12-19T06:51:39.014Z,3.90
2022-12-19T06:54:06.540Z,3.90
2022-12-19T06:56:38.816Z,3.90
2022-12-19T06:59:07.301Z,4.00
2022-12-19T07:02:03.391Z,4.00
2022-12-19T07:04:40.656Z,4.00
2022-12-19T07:07:08.203Z,4.00
2022-12-19T07:09:35.657Z,4.00
2022-12-19T07:12:03.675Z,4.10
2022-12-19T07:14:30.803Z,4.10
2022-12-19T07:17:00.277Z,4.10
2022-12-19T07:19:28.695Z,4.10
2022-12-19T07:21:56.411Z,4.10
2022-12-19T07:24:23.535Z,4.20
2022-12-19T07:26:50.864Z,4.20
2022-12-19T07:29:17.958Z,4.20
2022-12-19T07:31:45.131Z,4.20
2022-12-19T07:34:12.144Z,4.30
2022-12-19T07:36:39.263Z,4.20
2022-12-19T07:39:06.296Z,4.30
2022-12-19T07:41:36.858Z,4.30
2022-12-19T07:44:05.356Z,4.30
2022-12-19T07:46:32.729Z,4.30
2022-12-19T07:49:00.349Z,4.40
2022-12-19T07:51:27.925Z,4.40
2022-12-19T07:53:55.037Z,4.40
2022-12-19T07:56:22.404Z,4.50
2022-12-19T07:58:50.419Z,4.50
2022-12-19T08:01:17.854Z,4.50
2022-12-19T08:03:45.121Z,4.60
2022-12-19T08:06:12.485Z,4.60
2022-12-19T08:08:39.810Z,4.70
2022-12-19T08:11:13.273Z,4.80
2022-12-19T08:13:46.526Z,4.80
2022-12-19T08:16:15.127Z,4.80
2022-12-19T08:18:42.349Z,4.80
2022-12-19T08:21:10.760Z,4.90
2022-12-19T08:23:41.266Z,4.90
2022-12-19T08:26:15.387Z,5.00
2022-12-19T08:28:43.510Z,5.00
2022-12-19T08:31:17.228Z,5.00
2022-12-19T08:33:45.147Z,5.00
2022-12-19T08:36:18.824Z,5.10
2022-12-19T08:38:46.936Z,5.10
2022-12-19T08:41:15.996Z,5.10
2022-12-19T08:43:48.119Z,5.10
2022-12-19T08:46:15.638Z,5.20
2022-12-19T08:48:42.898Z,5.20
2022-12-19T08:51:13.018Z,5.20
2022-12-19T08:53:43.143Z,5.30
2022-12-19T08:56:21.518Z,5.30
2022-12-19T08:58:51.769Z,5.30
2022-12-19T09:01:21.078Z,5.40
2022-12-19T09:04:18.736Z,5.50
2022-12-19T09:06:36.080Z,5.40
2022-12-19T09:09:05.170Z,5.50
2022-12-19T09:11:45.928Z,5.50
2022-12-19T09:14:15.706Z,5.60
2022-12-19T09:16:48.971Z,5.60
2022-12-19T09:19:16.633Z,5.70
2022-12-19T09:21:44.525Z,5.70
2022-12-19T09:24:11.667Z,5.70
2022-12-19T09:26:39.436Z,5.70
2022-12-19T09:29:13.682Z,5.70
2022-12-19T09:31:55.827Z,5.80
2022-12-19T09:34:38.074Z,5.80
2022-12-19T09:37:17.307Z,5.80
2022-12-19T09:39:48.660Z,5.80
2022-12-19T09:42:42.135Z,5.90
2022-12-19T09:45:31.151Z,5.90
2022-12-19T09:48:01.046Z,5.90
2022-12-19T09:50:42.696Z,6.00
2022-12-19T09:53:30.112Z,6.00
2022-12-19T09:55:58.682Z,6.00
2022-12-19T09:58:32.604Z,6.10
2022-12-19T10:01:05.942Z,6.10
2022-12-19T10:03:48.373Z,6.10
2022-12-19T10:07:19.831Z,6.20
2022-12-19T10:10:57.337Z,6.20
2022-12-19T10:12:43.074Z,6.20
2022-12-19T10:15:02.415Z,6.30
2022-12-19T10:17:58.775Z,6.30
2022-12-19T10:20:36.239Z,6.30
2022-12-19T10:23:43.426Z,6.40
2022-12-19T10:26:20.975Z,6.40
2022-12-19T10:29:15.691Z,6.40
2022-12-19T10:32:00.533Z,6.50
2022-12-19T10:34:43.901Z,6.50
2022-12-19T10:37:45.621Z,6.50
2022-12-19T10:40:28.597Z,6.50
2022-12-19T10:43:30.641Z,6.60
2022-12-19T10:46:08.890Z,6.60
2022-12-19T10:48:36.134Z,6.60
2022-12-19T10:51:06.379Z,6.70
2022-12-19T10:53:34.553Z,6.70
2022-12-19T10:56:14.211Z,6.70
2022-12-19T10:58:44.319Z,6.80
2022-12-19T11:01:33.368Z,6.80
2022-12-19T11:04:24.704Z,6.90
2022-12-19T11:07:20.646Z,6.80
2022-12-19T11:10:02.696Z,6.90
2022-12-19T11:17:37.253Z,6.90
2022-12-19T11:18:34.367Z,6.90
2022-12-19T11:28:58.471Z,7.00
2022-12-19T11:29:31.957Z,7.00
2022-12-19T11:29:38.649Z,7.00
2022-12-19T11:30:48.383Z,7.00
2022-12-19T11:33:22.640Z,7.10
2022-12-19T11:35:53.469Z,7.10
2022-12-19T11:38:38.687Z,7.10
2022-12-19T11:41:48.912Z,7.10
2022-12-19T11:45:12.125Z,7.10
2022-12-19T11:47:56.346Z,7.10
2022-12-19T11:50:28.509Z,7.20
2022-12-19T11:53:18.520Z,7.20
2022-12-19T11:56:01.585Z,7.20
2022-12-19T11:58:29.989Z,7.30
2022-12-19T12:01:47.888Z,7.30
2022-12-19T12:04:30.076Z,7.30
2022-12-19T12:06:57.937Z,7.30
2022-12-19T12:15:24.376Z,7.30
2022-12-19T12:20:31.218Z,7.30
2022-12-19T12:20:58.970Z,7.30
2022-12-19T12:31:19.239Z,7.40
2022-12-19T12:31:26.705Z,7.40
2022-12-19T12:31:45.111Z,7.40
2022-12-19T12:32:00.733Z,7.40
2022-12-19T12:35:46.740Z,7.40
2022-12-19T12:38:40.032Z,7.50
2022-12-19T12:42:02.839Z,7.50
2022-12-19T12:44:44.774Z,7.50
2022-12-19T12:47:25.759Z,7.60
2022-12-19T12:50:09.080Z,7.60
2022-12-19T12:52:47.944Z,7.60
2022-12-19T12:55:21.171Z,7.70
2022-12-19T12:57:48.370Z,7.60
2022-12-19T13:00:23.431Z,7.60
2022-12-19T13:03:17.787Z,7.60
2022-12-19T13:06:05.249Z,7.60
2022-12-19T13:08:39.994Z,7.70
2022-12-19T13:12:03.442Z,7.70
2022-12-19T13:14:39.253Z,7.70
2022-12-19T13:17:25.548Z,7.70
2022-12-19T13:20:18.470Z,7.70
2022-12-19T13:23:05.264Z,7.70
2022-12-19T13:25:38.061Z,7.70
2022-12-19T13:28:08.150Z,7.70
2022-12-19T13:30:50.552Z,7.80
2022-12-19T13:33:22.494Z,7.80
2022-12-19T13:39:47.687Z,7.80
2022-12-19T13:39:48.693Z,7.80
2022-12-19T13:42:01.611Z,7.80
2022-12-19T13:44:41.366Z,7.90
2022-12-19T13:47:13.156Z,7.90
2022-12-19T13:49:40.540Z,7.80
2022-12-19T13:52:11.310Z,7.90
2022-12-19T13:54:51.585Z,7.80
2022-12-19T13:57:28.976Z,7.90
2022-12-19T14:00:02.276Z,7.90
2022-12-19T14:02:45.964Z,7.90
2022-12-19T14:06:16.373Z,7.90
2022-12-19T14:08:25.470Z,7.90
2022-12-19T14:11:31.671Z,7.90
2022-12-19T14:14:17.687Z,7.90
2022-12-19T14:16:47.497Z,7.90
2022-12-19T14:19:27.611Z,7.90
2022-12-19T14:22:05.678Z,7.90
2022-12-19T14:24:41.053Z,7.90
2022-12-19T14:28:20.529Z,7.90
2022-12-19T14:30:27.901Z,7.90
2022-12-19T14:33:46.085Z,7.90
2022-12-19T14:36:10.478Z,7.90
2022-12-19T14:39:27.304Z,7.90
2022-12-19T14:41:47.936Z,7.90
2022-12-19T14:54:03.376Z,7.90
2022-12-19T14:54:17.042Z,7.90
2022-12-19T14:54:22.685Z,7.90
2022-12-19T14:54:50.327Z,7.90
2022-12-19T14:56:40.230Z,7.90
2022-12-19T14:59:42.223Z,7.90
2022-12-19T15:02:12.125Z,7.90
2022-12-19T15:04:59.280Z,7.90
2022-12-19T15:07:30.550Z,7.90
2022-12-19T15:11:03.776Z,7.90
2022-12-19T15:14:48.363Z,7.90
2022-12-19T15:16:23.959Z,7.90
2022-12-19T15:18:56.617Z,7.90
2022-12-19T15:21:27.244Z,7.90
2022-12-19T15:23:54.535Z,8.00
2022-12-19T15:26:34.494Z,8.00
2022-12-19T15:29:06.453Z,8.00
2022-12-19T15:31:36.497Z,8.00
2022-12-19T15:34:48.280Z,8.00
2022-12-19T15:37:14.291Z,7.90
2022-12-19T15:39:43.618Z,7.90
2022-12-19T15:42:24.415Z,7.90
2022-12-19T15:44:53.932Z,7.90
2022-12-19T15:47:32.746Z,7.90
2022-12-19T15:50:03.880Z,7.90
2022-12-19T15:52:30.948Z,7.90
2022-12-19T15:55:00.534Z,7.90
2022-12-19T15:57:38.583Z,7.90
2022-12-19T16:00:12.736Z,8.00
2022-12-19T16:03:21.346Z,7.90
2022-12-19T16:05:29.350Z,7.90
2022-12-19T16:07:58.801Z,8.00
2022-12-19T16:10:26.475Z,8.00
2022-12-19T16:12:55.913Z,8.00
2022-12-19T16:15:30.428Z,8.00
2022-12-19T16:18:00.034Z,8.00
2022-12-19T16:20:37.738Z,8.00
2022-12-19T16:23:05.033Z,8.00
2022-12-19T16:25:50.894Z,8.00
2022-12-19T16:28:36.064Z,8.00
2022-12-19T16:31:16.110Z,8.00
2022-12-19T16:33:43.743Z,7.90
2022-12-19T16:36:10.936Z,8.00
2022-12-19T16:38:38.176Z,7.90
2022-12-19T16:41:05.562Z,7.90
2022-12-19T16:43:43.742Z,7.90
2022-12-19T16:46:19.008Z,7.90
2022-12-19T16:48:47.189Z,7.90
2022-12-19T16:51:27.459Z,7.90
2022-12-19T16:54:00.280Z,7.90
2022-12-19T16:56:34.850Z,7.90
2022-12-19T16:59:08.335Z,7.90
2022-12-19T17:01:36.311Z,7.80
2022-12-19T17:04:03.467Z,7.80
2022-12-19T17:06:30.476Z,7.80
2022-12-19T17:08:57.546Z,7.80
2022-12-19T17:11:26.670Z,7.80
2022-12-19T17:14:01.979Z,7.80
2022-12-19T17:16:30.972Z,7.80
2022-12-19T17:19:01.584Z,7.80
2022-12-19T17:21:29.200Z,7.80
2022-12-19T17:23:56.460Z,7.80
2022-12-19T17:26:23.605Z,7.70
2022-12-19T17:28:50.919Z,7.70
2022-12-19T17:31:28.525Z,7.80
2022-12-19T17:33:58.067Z,7.80
2022-12-19T17:36:37.033Z,7.80
2022-12-19T17:39:23.658Z,7.80
2022-12-19T17:41:52.569Z,7.80
2022-12-19T17:44:19.961Z,7.80
2022-12-19T17:46:48.185Z,7.90
2022-12-19T17:49:37.491Z,7.90
2022-12-19T17:52:12.866Z,7.90
2022-12-19T17:54:40.150Z,7.90
2022-12-19T17:57:15.330Z,7.90
2022-12-19T17:59:42.870Z,8.00
2022-12-19T18:02:27.464Z,8.00
2022-12-19T18:04:54.983Z,8.00
2022-12-19T18:07:22.277Z,8.10
2022-12-19T18:09:49.455Z,8.10
2022-12-19T18:12:16.660Z,8.10
2022-12-19T18:14:44.045Z,8.10
2022-12-19T18:17:14.137Z,8.20
2022-12-19T18:19:41.333Z,8.20
2022-12-19T18:22:14.994Z,8.20
2022-12-19T18:24:42.538Z,8.20
2022-12-19T18:27:12.654Z,8.30
2022-12-19T18:29:40.097Z,8.30
2022-12-19T18:32:21.202Z,8.20
2022-12-19T18:34:48.555Z,8.20
2022-12-19T18:37:15.992Z,8.20
2022-12-19T18:39:43.216Z,8.10
2022-12-19T18:42:20.741Z,8.20
2022-12-19T18:44:48.311Z,8.10
2022-12-19T18:47:23.508Z,8.10
2022-12-19T18:49:52.489Z,8.10
2022-12-19T18:52:19.636Z,8.10
2022-12-19T18:54:46.792Z,8.10
2022-12-19T18:57:14.524Z,8.10
2022-12-19T18:59:41.893Z,8.10
2022-12-19T19:02:27.633Z,8.00
2022-12-19T19:04:55.893Z,8.00
2022-12-19T19:07:23.230Z,8.00
2022-12-19T19:09:50.294Z,8.00
2022-12-19T19:12:40.128Z,8.00
2022-12-19T19:15:08.102Z,7.90
2022-12-19T19:17:35.558Z,7.90
2022-12-19T19:20:03.737Z,7.90
2022-12-19T19:22:30.896Z,7.90
2022-12-19T19:24:59.625Z,7.80
2022-12-19T19:27:26.894Z,7.80
2022-12-19T19:29:54.085Z,7.70
2022-12-19T19:32:21.311Z,7.70
2022-12-19T19:34:49.234Z,7.80
2022-12-19T19:37:16.877Z,7.80
2022-12-19T19:39:44.918Z,7.70
2022-12-19T19:42:12.208Z,7.70
2022-12-19T19:44:39.664Z,7.70
2022-12-19T19:47:07.265Z,7.70
2022-12-19T19:49:34.539Z,7.70
2022-12-19T19:52:03.097Z,7.70
2022-12-19T19:54:31.566Z,7.70
2022-12-19T19:56:58.795Z,7.70
2022-12-19T19:59:30.829Z,7.70
2022-12-19T20:02:00.943Z,7.70
2022-12-19T20:04:28.555Z,7.70
2022-12-19T20:06:55.750Z,7.70
2022-12-19T20:09:22.906Z,7.70
2022-12-19T20:11:50.087Z,7.70
2022-12-19T20:14:17.278Z,7.70
2022-12-19T20:16:44.685Z,7.70
2022-12-19T20:19:12.257Z,7.70
2022-12-19T20:21:39.369Z,7.70
2022-12-19T20:24:06.747Z,7.70
2022-12-19T20:26:34.810Z,7.80
2022-12-19T20:29:02.058Z,7.80
2022-12-19T20:31:29.578Z,7.80
2022-12-19T20:33:56.784Z,7.90
2022-12-19T20:36:25.143Z,7.90
2022-12-19T20:38:52.528Z,7.90
2022-12-19T20:41:19.663Z,8.00
2022-12-19T20:43:48.052Z,8.10
2022-12-19T20:46:18.682Z,8.10
2022-12-19T20:48:47.573Z,8.10
2022-12-19T20:51:17.340Z,8.10
2022-12-19T20:53:45.555Z,8.10
2022-12-19T20:56:16.370Z,8.20
2022-12-19T20:58:44.838Z,8.20
2022-12-19T21:01:19.951Z,8.30
2022-12-19T21:03:48.564Z,8.30
2022-12-19T21:06:19.654Z,8.40
2022-12-19T21:08:48.156Z,8.40
2022-12-19T21:11:15.987Z,8.50
2022-12-19T21:13:44.116Z,8.50
2022-12-19T21:16:18.549Z,8.50
2022-12-19T21:18:47.741Z,8.50
2022-12-19T21:21:23.349Z,8.60
2022-12-19T21:23:51.987Z,8.60
2022-12-19T21:26:19.581Z,8.60
2022-12-19T21:28:46.749Z,8.60
2022-12-19T21:31:21.658Z,8.70
2022-12-19T21:33:49.482Z,8.70
2022-12-19T21:36:20.356Z,8.70
2022-12-19T21:38:54.485Z,8.80
2022-12-19T21:41:22.352Z,8.80
2022-12-19T21:43:53.597Z,8.80
2022-12-19T21:46:24.350Z,8.80
2022-12-19T21:48:55.103Z,8.80
2022-12-19T21:51:25.649Z,8.70
2022-12-19T21:54:02.718Z,8.70
2022-12-19T21:56:39.232Z,8.70
2022-12-19T21:59:12.608Z,8.70
2022-12-19T22:01:41.521Z,8.70
2022-12-19T22:04:15.307Z,8.70
2022-12-19T22:06:42.589Z,8.70
2022-12-19T22:09:15.706Z,8.70
2022-12-19T22:11:43.136Z,8.80
2022-12-19T22:14:14.241Z,8.70
2022-12-19T22:16:41.501Z,8.70
2022-12-19T22:19:15.483Z,8.80
2022-12-19T22:21:44.193Z,8.80
2022-12-19T22:24:14.408Z,8.80
2022-12-19T22:26:41.955Z,8.80
2022-12-19T22:29:16.359Z,8.80
2022-12-19T22:31:44.791Z,8.80
2022-12-19T22:34:18.799Z,8.90
2022-12-19T22:36:46.848Z,8.90
2022-12-19T22:39:17.936Z,8.90
2022-12-19T22:41:45.320Z,8.80
2022-12-19T22:44:19.449Z,8.90
2022-12-19T22:46:47.459Z,8.90
2022-12-19T22:49:14.890Z,8.90
2022-12-19T22:51:42.559Z,8.90
2022-12-19T22:54:12.023Z,8.90
2022-12-19T22:56:40.223Z,8.90
2022-12-19T22:59:08.744Z,8.90
2022-12-19T23:01:40.390Z,8.90
2022-12-19T23:04:12.329Z,8.90
2022-12-19T23:06:39.924Z,9.00
2022-12-19T23:09:09.850Z,9.00
2022-12-19T23:11:40.796Z,9.00
2022-12-19T23:14:12.960Z,9.10
2022-12-19T23:16:40.516Z,9.20
2022-12-19T23:19:09.071Z,9.10
2022-12-19T23:21:36.948Z,9.10
2022-12-19T23:24:04.518Z,9.10
2022-12-19T23:26:37.601Z,9.10
2022-12-19T23:29:12.546Z,9.10
2022-12-19T23:31:42.628Z,9.10
2022-12-19T23:34:10.498Z,9.10
2022-12-19T23:37:09.466Z,9.00
2022-12-19T23:39:24.934Z,9.00
2022-12-19T23:41:52.053Z,9.00
2022-12-19T23:44:19.311Z,9.00
2022-12-19T23:46:46.366Z,9.00
2022-12-19T23:49:13.610Z,8.90
2022-12-19T23:51:40.734Z,8.90
2022-12-19T23:54:08.898Z,8.90
2022-12-19T23:56:36.405Z,8.90
2022-12-19T23:59:03.945Z,8.90
